aviador You're here:

YSNF Decoded Metar

NORFOLK ISLAND in AUSTRALIA
Report Time2018-01-16 19:00:00
UTC Time2018-01-16 19:34:10
Flight Rules vfr VFR
Wind310° at 06 kt
W.Decomp.*RWY 29: 6.0 kt HW 0.5 kt RCW
RWY 22: 1.6 kt HW 5.8 kt RCW
W.Rank310° ranks 30
Current wind is below 310° avg. (8.6)
Visibility9999 m
Phenomena:N/A
Clouds:N/A
Expected CloudBase > 1,200 ft AGL from Temp-Dew spread
CeilingNone
Temp21°C (ISA +7)
Dew Point18°C (83% RH)
QNH1010 hPa
Density Alt1,519 ft
Elevation358 ft
Report Wrong Elevation
Raw Report
YSNF 161900Z AUTO 31006KT 9999 // NCD 21/18 Q1010=

Extra information for YSNF:More info

Metar Taf Metar & Taf Last 4 Metars F.Rules Stats Wind Profile Meteogram Temp Stats Airport Information Weather charts Add Link Nearby VenuesMetar ALERT Operation Metar Decoded Social comments